Terminal Aerodrome Forecast
Issued by NWS

Home | Current Version | Previous Version | Text Only | Print | Product List | Glossary On
Versions: 1 2 3 4 5 6 7 8 9 10 11 12 13 14 15 16 17 18 19 20
000
FTUS41 KBTV 061133 RRA
TAFRUT
TAF
KRUT 061133Z 0612/0712 32004KT P6SM BKN030
     FM061400 21004KT P6SM SCT070
     FM062100 09004KT P6SM FEW200
     FM070300 13004KT P6SM VCSH OVC100=

USA.gov is the U.S. government's official web portal to all federal, state and local government web resources and services.